createdAt,value
2023-01-13T00:00:47.730Z,0.60
2023-01-13T00:03:49.748Z,0.77
2023-01-13T00:06:51.708Z,0.80
2023-01-13T00:09:53.721Z,0.40
2023-01-13T00:12:55.719Z,1.30
2023-01-13T00:15:59.419Z,0.50
2023-01-13T00:19:01.391Z,0.60
2023-01-13T00:22:03.399Z,0.35
2023-01-13T00:25:05.685Z,0.65
2023-01-13T00:28:07.679Z,0.60
2023-01-13T00:31:16.526Z,0.57
2023-01-13T00:34:18.579Z,0.70
2023-01-13T00:37:20.845Z,0.45
2023-01-13T00:40:22.816Z,0.60
2023-01-13T00:43:25.345Z,0.60
2023-01-13T00:49:29.226Z,0.57
2023-01-13T00:52:33.127Z,0.75
2023-01-13T00:55:35.059Z,0.45
2023-01-13T00:58:37.083Z,0.60
2023-01-13T01:01:39.934Z,0.40
2023-01-13T01:04:42.068Z,0.57
2023-01-13T01:07:43.998Z,0.47
2023-01-13T01:10:45.956Z,0.85
2023-01-13T01:13:49.026Z,0.65
2023-01-13T01:16:51.060Z,0.60
2023-01-13T01:19:55.464Z,0.52
2023-01-13T01:22:57.396Z,0.65
2023-01-13T01:26:04.643Z,0.50
2023-01-13T01:29:06.591Z,0.60
2023-01-13T01:32:08.521Z,0.60
2023-01-13T01:35:10.525Z,0.73
2023-01-13T01:38:12.592Z,0.60
2023-01-13T01:41:24.881Z,1.20
2023-01-13T01:44:41.977Z,0.68
2023-01-13T01:47:47.213Z,0.60
2023-01-13T01:50:49.265Z,0.30
2023-01-13T01:53:52.898Z,0.52
2023-01-13T01:56:55.547Z,0.50
2023-01-13T02:00:02.039Z,0.57
2023-01-13T02:03:15.300Z,0.95
2023-01-13T02:06:17.671Z,0.50
2023-01-13T02:09:19.888Z,0.55
2023-01-13T02:12:22.959Z,0.40
2023-01-13T02:15:47.740Z,0.88
2023-01-13T02:18:49.881Z,0.90
2023-01-13T02:22:14.404Z,0.60
2023-01-13T02:25:22.004Z,0.70
2023-01-13T02:28:45.672Z,0.65
2023-01-13T02:31:50.771Z,0.60
2023-01-13T02:35:06.709Z,0.77
2023-01-13T02:38:11.323Z,0.70
2023-01-13T02:41:26.418Z,0.70
2023-01-13T02:44:38.404Z,0.60
2023-01-13T02:47:43.773Z,0.50
2023-01-13T02:51:03.958Z,0.50
2023-01-13T02:54:21.199Z,0.45
2023-01-13T02:57:25.909Z,0.90
2023-01-13T03:00:28.339Z,0.60
2023-01-13T03:03:30.270Z,0.70
2023-01-13T03:07:04.659Z,0.65
2023-01-13T03:10:31.339Z,0.43
2023-01-13T03:16:56.695Z,0.40
2023-01-13T03:20:07.782Z,0.50
2023-01-13T03:23:24.693Z,0.63
2023-01-13T03:26:35.762Z,0.60
2023-01-13T03:29:42.387Z,0.60
2023-01-13T03:32:49.054Z,0.40
2023-01-13T03:35:55.611Z,0.68
2023-01-13T03:39:03.843Z,0.50
2023-01-13T03:42:13.212Z,0.50
2023-01-13T03:45:19.098Z,0.50
2023-01-13T03:48:23.785Z,0.98
2023-01-13T03:51:29.426Z,0.90
2023-01-13T03:54:34.310Z,0.55
2023-01-13T03:57:43.370Z,0.32
2023-01-13T04:01:18.879Z,0.35
2023-01-13T04:04:25.958Z,0.40
2023-01-13T04:07:33.259Z,1.05
2023-01-13T04:10:43.027Z,0.30
2023-01-13T04:13:46.837Z,0.80
2023-01-13T04:16:49.100Z,0.70
2023-01-13T04:19:50.965Z,0.50
2023-01-13T04:22:52.794Z,0.65
2023-01-13T04:25:55.763Z,0.35
2023-01-13T04:29:01.089Z,0.50
2023-01-13T04:32:02.995Z,0.50
2023-01-13T04:35:05.227Z,0.45
2023-01-13T04:38:13.488Z,0.80
2023-01-13T04:41:15.379Z,0.65
2023-01-13T04:44:17.261Z,0.30
2023-01-13T04:47:19.179Z,0.80
2023-01-13T04:50:21.295Z,0.30
2023-01-13T04:53:23.177Z,0.32
2023-01-13T04:56:25.059Z,0.38
2023-01-13T04:59:26.936Z,0.40
2023-01-13T05:02:28.806Z,0.30
2023-01-13T05:05:30.825Z,0.50
2023-01-13T05:08:32.715Z,0.30
2023-01-13T05:11:34.574Z,0.30
2023-01-13T05:14:36.672Z,0.35
2023-01-13T05:17:38.763Z,0.20
2023-01-13T05:20:40.641Z,0.30
2023-01-13T05:23:42.522Z,0.43
2023-01-13T05:26:45.086Z,0.30
2023-01-13T05:32:51.215Z,0.30
2023-01-13T05:35:53.237Z,0.55
2023-01-13T05:38:55.090Z,0.40
2023-01-13T05:41:56.961Z,0.30
2023-01-13T05:44:58.799Z,0.32
2023-01-13T05:48:00.677Z,0.30
2023-01-13T05:51:04.502Z,0.22
2023-01-13T05:54:06.351Z,0.17
2023-01-13T05:57:09.099Z,0.25
2023-01-13T06:00:11.523Z,0.47
2023-01-13T06:03:17.023Z,0.35
2023-01-13T06:06:18.974Z,0.30
2023-01-13T06:09:20.868Z,0.25
2023-01-13T06:12:22.713Z,0.30
2023-01-13T06:15:25.202Z,0.30
2023-01-13T06:18:27.810Z,0.40
2023-01-13T06:21:31.380Z,0.60
2023-01-13T06:24:34.303Z,0.32
2023-01-13T06:27:36.211Z,0.50
2023-01-13T06:30:42.197Z,0.45
2023-01-13T06:33:49.349Z,0.63
2023-01-13T06:36:54.403Z,0.47
2023-01-13T06:40:00.166Z,0.40
2023-01-13T06:43:03.339Z,0.38
2023-01-13T06:46:05.449Z,0.43
2023-01-13T06:49:07.631Z,0.43
2023-01-13T06:52:09.703Z,0.32
2023-01-13T06:55:11.902Z,0.95
2023-01-13T06:58:13.896Z,0.52
2023-01-13T07:01:16.175Z,0.63
2023-01-13T07:04:18.148Z,0.32
2023-01-13T07:07:20.207Z,0.50
2023-01-13T07:10:22.297Z,0.50
2023-01-13T07:13:24.751Z,0.25
2023-01-13T07:16:26.642Z,0.40
2023-01-13T07:19:28.519Z,0.20
2023-01-13T07:22:30.356Z,0.50
2023-01-13T07:25:33.051Z,0.32
2023-01-13T07:28:35.348Z,0.38
2023-01-13T07:31:37.283Z,0.50
2023-01-13T07:34:39.153Z,0.38
2023-01-13T07:37:41.037Z,0.28
2023-01-13T07:40:42.890Z,0.20
2023-01-13T07:43:52.010Z,0.20
2023-01-13T07:46:53.828Z,0.20
2023-01-13T07:49:55.781Z,0.15
2023-01-13T07:53:00.570Z,0.40
2023-01-13T07:56:04.420Z,0.35
2023-01-13T07:59:06.272Z,0.63
2023-01-13T08:02:12.617Z,0.20
2023-01-13T08:05:14.639Z,0.32
2023-01-13T08:08:16.491Z,0.30
2023-01-13T08:11:23.332Z,0.90
2023-01-13T08:14:25.427Z,0.40
2023-01-13T08:17:27.418Z,0.30
2023-01-13T08:20:29.401Z,0.77
2023-01-13T08:23:31.347Z,0.40
2023-01-13T08:26:33.220Z,0.25
2023-01-13T08:29:35.105Z,0.60
2023-01-13T08:32:36.975Z,0.60
2023-01-13T08:35:40.393Z,0.80
2023-01-13T08:38:44.606Z,0.60
2023-01-13T08:41:46.430Z,0.88
2023-01-13T08:44:48.303Z,0.45
2023-01-13T08:47:50.620Z,0.50
2023-01-13T08:50:52.640Z,1.33
2023-01-13T08:53:56.673Z,0.65
2023-01-13T08:56:58.787Z,0.90
2023-01-13T09:00:00.705Z,1.00
2023-01-13T09:03:02.820Z,0.57
2023-01-13T09:06:05.092Z,0.68
2023-01-13T09:09:07.015Z,0.30
2023-01-13T09:12:15.320Z,0.80
2023-01-13T09:15:17.328Z,0.60
2023-01-13T09:18:19.227Z,0.77
2023-01-13T09:21:22.429Z,0.35
2023-01-13T09:24:25.632Z,1.50
2023-01-13T09:27:27.582Z,0.60
2023-01-13T09:30:29.472Z,0.80
2023-01-13T09:33:31.388Z,0.70
2023-01-13T09:36:33.255Z,0.50
2023-01-13T09:39:37.900Z,0.77
2023-01-13T09:42:46.464Z,0.60
2023-01-13T09:45:56.105Z,0.80
2023-01-13T09:48:58.849Z,0.80
2023-01-13T09:55:12.368Z,0.88
2023-01-13T09:58:17.400Z,1.00
2023-01-13T10:01:31.893Z,1.35
2023-01-13T10:04:33.885Z,1.25
2023-01-13T10:07:39.662Z,0.80
2023-01-13T10:10:50.857Z,0.82
2023-01-13T10:13:58.878Z,0.75
2023-01-13T10:17:12.248Z,0.80
2023-01-13T10:20:32.176Z,0.80
2023-01-13T10:24:05.377Z,1.00
2023-01-13T10:27:17.348Z,0.80
2023-01-13T10:30:23.817Z,1.00
2023-01-13T10:33:28.000Z,0.93
2023-01-13T10:36:30.446Z,1.20
2023-01-13T10:39:45.106Z,1.20
2023-01-13T10:46:11.453Z,1.40
2023-01-13T10:49:32.543Z,1.05
2023-01-13T10:52:36.187Z,1.13
2023-01-13T10:55:38.144Z,0.77
2023-01-13T10:58:40.044Z,0.90
2023-01-13T11:01:58.076Z,1.08
2023-01-13T11:05:09.430Z,1.30
2023-01-13T11:08:18.278Z,0.90
2023-01-13T11:11:40.096Z,0.85
2023-01-13T11:14:46.609Z,1.00
2023-01-13T11:17:54.371Z,0.80
2023-01-13T11:20:58.699Z,1.00
2023-01-13T11:24:38.855Z,0.70
2023-01-13T11:27:58.808Z,0.57
2023-01-13T11:31:05.793Z,0.60
2023-01-13T11:34:25.558Z,0.82
2023-01-13T11:37:37.510Z,1.10
2023-01-13T11:40:49.443Z,0.88
2023-01-13T11:44:10.957Z,0.93
2023-01-13T11:47:14.010Z,0.80
2023-01-13T12:03:38.322Z,1.10
2023-01-13T12:06:41.917Z,0.68
2023-01-13T12:09:49.642Z,0.60
2023-01-13T12:13:00.813Z,0.70
2023-01-13T12:16:11.606Z,1.30
2023-01-13T12:19:19.412Z,0.88
2023-01-13T12:22:29.989Z,1.20
2023-01-13T12:25:43.799Z,0.82
2023-01-13T12:29:11.370Z,1.23
2023-01-13T12:32:19.512Z,0.75
2023-01-13T12:35:47.007Z,1.20
2023-01-13T12:39:18.864Z,1.25
2023-01-13T12:42:47.153Z,0.88
2023-01-13T12:45:49.179Z,1.00
2023-01-13T12:48:56.637Z,1.38
2023-01-13T12:52:05.452Z,1.00
2023-01-13T12:55:12.997Z,1.00
2023-01-13T12:58:16.709Z,1.10
2023-01-13T13:01:34.108Z,0.90
2023-01-13T13:04:48.670Z,0.77
2023-01-13T13:08:12.128Z,0.60
2023-01-13T13:11:13.925Z,1.00
2023-01-13T13:14:36.302Z,1.38
2023-01-13T13:17:39.606Z,1.00
2023-01-13T13:21:05.220Z,1.10
2023-01-13T13:24:10.706Z,0.93
2023-01-13T13:27:21.257Z,1.05
2023-01-13T13:30:35.396Z,1.05
2023-01-13T13:34:20.391Z,0.90
2023-01-13T13:37:25.294Z,1.20
2023-01-13T13:40:30.469Z,1.00
2023-01-13T13:43:43.549Z,1.65
2023-01-13T13:46:47.820Z,0.90
2023-01-13T13:49:56.037Z,0.90
2023-01-13T13:53:08.521Z,1.50
2023-01-13T13:56:18.639Z,0.95
2023-01-13T13:59:26.165Z,1.10
2023-01-13T14:02:30.948Z,0.95
2023-01-13T14:05:37.124Z,1.15
2023-01-13T14:08:40.079Z,1.55
2023-01-13T14:11:41.904Z,1.20
2023-01-13T14:14:45.009Z,2.15
2023-01-13T14:17:47.560Z,2.22
2023-01-13T14:21:00.916Z,1.63
2023-01-13T14:24:13.707Z,1.58
2023-01-13T14:27:21.497Z,1.80
2023-01-13T14:30:26.926Z,2.10
2023-01-13T14:33:28.751Z,1.25
2023-01-13T14:36:33.385Z,1.27
2023-01-13T14:39:40.974Z,1.98
2023-01-13T14:42:42.847Z,1.52
2023-01-13T14:46:02.027Z,1.23
2023-01-13T14:49:03.901Z,1.50
2023-01-13T14:52:27.756Z,1.65
2023-01-13T14:55:30.686Z,1.42
2023-01-13T14:58:32.855Z,1.63
2023-01-13T15:01:36.044Z,1.50
2023-01-13T15:04:38.048Z,1.30
2023-01-13T15:07:39.956Z,1.35
2023-01-13T15:10:49.145Z,0.90
2023-01-13T15:14:00.617Z,1.30
2023-01-13T15:17:02.790Z,1.85
2023-01-13T15:23:21.421Z,1.23
2023-01-13T15:26:28.761Z,1.25
2023-01-13T15:29:30.697Z,1.00
2023-01-13T15:32:32.552Z,1.00
2023-01-13T15:35:35.245Z,1.52
2023-01-13T15:41:39.021Z,1.52
2023-01-13T15:44:40.869Z,2.85
2023-01-13T15:47:43.924Z,2.00
2023-01-13T15:50:45.858Z,1.20
2023-01-13T15:53:47.820Z,1.38
2023-01-13T15:56:49.732Z,1.48
2023-01-13T15:59:58.864Z,1.10
2023-01-13T16:03:00.863Z,1.52
2023-01-13T16:06:02.827Z,1.10
2023-01-13T16:09:05.610Z,0.85
2023-01-13T16:15:15.792Z,1.77
2023-01-13T16:18:21.494Z,1.23
2023-01-13T16:21:23.956Z,1.48
2023-01-13T16:27:33.187Z,1.20
2023-01-13T16:30:36.917Z,1.58
2023-01-13T16:33:39.084Z,1.25
2023-01-13T16:36:41.055Z,2.15
2023-01-13T16:39:42.941Z,1.30
2023-01-13T16:42:44.822Z,1.83
2023-01-13T16:45:46.639Z,1.20
2023-01-13T16:48:51.238Z,1.13
2023-01-13T16:51:53.093Z,1.30
2023-01-13T16:54:55.875Z,1.55
2023-01-13T17:01:03.728Z,1.30
2023-01-13T17:04:06.199Z,1.35
2023-01-13T17:10:21.545Z,1.50
2023-01-13T17:13:23.564Z,1.70
2023-01-13T17:16:25.973Z,1.50
2023-01-13T17:19:27.972Z,2.30
2023-01-13T17:22:29.780Z,1.80
2023-01-13T17:25:31.730Z,1.65
2023-01-13T17:28:33.726Z,1.48
2023-01-13T17:31:36.410Z,1.58
2023-01-13T17:37:40.220Z,1.33
2023-01-13T17:40:42.096Z,1.50
2023-01-13T17:43:46.284Z,1.17
2023-01-13T17:46:48.533Z,1.90
2023-01-13T17:49:50.432Z,1.23
2023-01-13T17:52:52.386Z,1.20
2023-01-13T17:55:55.489Z,1.60
2023-01-13T17:58:57.395Z,1.38
2023-01-13T18:01:59.559Z,1.73
2023-01-13T18:05:01.464Z,0.90
2023-01-13T18:08:03.634Z,1.27
2023-01-13T18:11:05.707Z,1.30
2023-01-13T18:14:07.612Z,1.25
2023-01-13T18:17:09.517Z,1.15
2023-01-13T18:20:15.835Z,1.23
2023-01-13T18:23:21.597Z,0.98
2023-01-13T18:26:30.143Z,2.60
2023-01-13T18:29:32.123Z,1.27
2023-01-13T18:32:34.491Z,0.98
2023-01-13T18:35:38.906Z,1.35
2023-01-13T18:38:40.783Z,0.85
2023-01-13T18:44:57.063Z,1.20
2023-01-13T18:51:01.973Z,1.02
2023-01-13T18:54:03.933Z,1.30
2023-01-13T18:57:05.924Z,0.85
2023-01-13T19:00:13.576Z,1.42
2023-01-13T19:03:15.540Z,1.10
2023-01-13T19:06:17.426Z,0.88
2023-01-13T19:09:24.213Z,0.93
2023-01-13T19:12:26.488Z,1.10
2023-01-13T19:15:28.652Z,1.15
2023-01-13T19:18:30.578Z,1.38
2023-01-13T19:24:39.570Z,1.58
2023-01-13T19:27:43.785Z,1.13
2023-01-13T19:30:45.704Z,1.42
2023-01-13T19:33:47.705Z,1.42
2023-01-13T19:36:52.402Z,1.30
2023-01-13T19:39:54.372Z,1.08
2023-01-13T19:42:56.290Z,1.42
2023-01-13T19:45:58.189Z,1.10
2023-01-13T19:49:00.101Z,1.10
2023-01-13T19:52:02.117Z,1.08
2023-01-13T19:55:04.233Z,1.10
2023-01-13T19:58:08.642Z,1.35
2023-01-13T20:01:10.646Z,1.25
2023-01-13T20:04:12.769Z,1.30
2023-01-13T20:07:14.834Z,1.38
2023-01-13T20:10:18.169Z,1.60
2023-01-13T20:13:22.602Z,2.00
2023-01-13T20:16:24.612Z,1.60
2023-01-13T20:22:33.390Z,1.52
2023-01-13T20:25:35.286Z,1.38
2023-01-13T20:28:37.254Z,1.63
2023-01-13T20:31:39.387Z,1.65
2023-01-13T20:34:41.344Z,1.55
2023-01-13T20:37:43.669Z,1.38
2023-01-13T20:40:45.604Z,2.00
2023-01-13T20:43:58.181Z,1.27
2023-01-13T20:47:00.085Z,1.55
2023-01-13T20:50:01.961Z,1.50
2023-01-13T20:53:03.867Z,1.50
2023-01-13T20:56:07.260Z,1.33
2023-01-13T20:59:09.597Z,1.40
2023-01-13T21:02:14.189Z,1.65
2023-01-13T21:05:16.187Z,1.60
2023-01-13T21:08:24.455Z,1.40
2023-01-13T21:11:28.091Z,1.80
2023-01-13T21:14:30.132Z,1.73
2023-01-13T21:17:32.010Z,1.55
2023-01-13T21:20:35.681Z,1.63
2023-01-13T21:23:42.383Z,2.17
2023-01-13T21:26:44.360Z,1.65
2023-01-13T21:29:46.303Z,2.08
2023-01-13T21:32:48.140Z,1.50
2023-01-13T21:35:50.049Z,1.67
2023-01-13T21:38:53.507Z,1.42
2023-01-13T21:41:55.428Z,1.67
2023-01-13T21:44:57.303Z,1.85
2023-01-13T21:47:59.203Z,2.10
2023-01-13T21:51:01.151Z,1.40
2023-01-13T21:54:03.066Z,2.05
2023-01-13T21:57:04.967Z,1.67
2023-01-13T22:00:07.618Z,2.20
2023-01-13T22:03:10.861Z,1.73
2023-01-13T22:06:12.751Z,1.73
2023-01-13T22:09:14.634Z,1.42
2023-01-13T22:12:16.562Z,1.92
2023-01-13T22:15:18.602Z,1.98
2023-01-13T22:18:20.463Z,2.08
2023-01-13T22:21:22.581Z,1.60
2023-01-13T22:24:24.487Z,1.60
2023-01-13T22:27:26.861Z,1.85
2023-01-13T22:30:28.857Z,1.60
2023-01-13T22:33:30.727Z,1.48
2023-01-13T22:36:37.209Z,1.77
2023-01-13T22:39:39.423Z,1.50
2023-01-13T22:42:42.620Z,1.73
2023-01-13T22:45:44.544Z,1.30
2023-01-13T22:48:46.413Z,1.33
2023-01-13T22:51:48.581Z,1.95
2023-01-13T22:54:50.391Z,1.95
2023-01-13T22:57:52.245Z,1.73
2023-01-13T23:00:54.435Z,1.70
2023-01-13T23:03:57.460Z,1.80
2023-01-13T23:06:59.425Z,1.95
2023-01-13T23:10:01.431Z,1.80
2023-01-13T23:13:03.648Z,5.30
2023-01-13T23:16:15.994Z,9.07
2023-01-13T23:19:17.907Z,2.22
2023-01-13T23:22:19.842Z,2.25
2023-01-13T23:25:21.892Z,2.90
2023-01-13T23:28:23.781Z,1.30
2023-01-13T23:31:25.825Z,1.70
2023-01-13T23:34:27.956Z,1.65
2023-01-13T23:37:29.906Z,1.65
2023-01-13T23:40:34.370Z,2.75
2023-01-13T23:43:36.358Z,1.85
2023-01-13T23:46:38.268Z,1.63
2023-01-13T23:49:40.132Z,1.58
2023-01-13T23:52:42.126Z,1.85
2023-01-13T23:55:44.119Z,1.85
2023-01-13T23:58:46.555Z,1.63
